Prudhoe Bay, AK

1:34 AM AKDT on October 25, 2014 (GMT -0800)
Deadhorse | Change Station
CLOSE
Current Station
Airport
Location: Deadhorse,
Elevation: 59 ft
Nearby Weather Stations

Elev 59 ft 70.19 °N, 148.47 °W | Updated 10 minutes ago

Light Snow
Light Snow Mist
13 °F
Feels Like 13 °F
N
0
Wind Variable Wind from North

Today
High -- | Low -- °F
--% Chance of Precip.
Yesterday
High -- | Low -- °F
Precip. -- in
9:53 AM 5:20 PM
New Moon, 2% visible
Pressure 29.84 in
Visibility 4.0 miles
Clouds Mostly Cloudy 5000 ft
Overcast 7000 ft
Dew Point 9 °F
Humidity 84%
Rainfall 0.00 in
Snow Depth Not available.
UV 0 out of 12
Pollen Not available.
Air Quality Not available.
Flu Activity Local Activity
SPECI PASC 250924Z 00000KT 4SM -SN BR BKN050 OVC070 M11/M13 A2984 RMK AO2 P0000 T11061128

More Conditions Fewer Conditions

Pressure 29.84 in
Visibility 4.0 miles
Clouds Mostly Cloudy 5000 ft
Overcast 7000 ft
Dew Point 9 °F
Humidity 84%
Rainfall 0.00 in
Snow Depth Not available.
UV 0 out of 12
Pollen Not available.
Air Quality Not available.
Flu Activity Local Activity
SPECI PASC 250924Z 00000KT 4SM -SN BR BKN050 OVC070 M11/M13 A2984 RMK AO2 P0000 T11061128

More Conditions Fewer Conditions

10-Day Weather Forecast

Almanac

Astronomy

Oct. 25, 2014 Rise Set
Actual Time 9:53 AM AKDT 5:20 PM AKDT
Civil Twilight 8:44 AM AKDT 6:29 PM AKDT
Nautical Twilight 7:31 AM AKDT 7:42 PM AKDT
Astronomical Twilight 6:20 AM AKDT 8:53 PM AKDT
Moon 12:50 PM AKDT 5:38 PM AKDT
Length of Visible Light 9h 45m
Length of Day
7h 26m
Tomorrow will be 9m 39s shorter.
New Moon, 2% of the Moon is Illuminated
Today
New Moon
Oct 30
First Quarter
Nov 6
Full
Nov 14
Last Quarter
Nov 22
New

Today's Extremes

State Highs State Lows

Community

WunderPhotos

Upload Photos

1,764,796 photos uploaded!

Nearby

Snow Depth

Station Depth Elevation
Imnaviat Creek 22 in 3050 ft
Atigun Pass 14 in 4800 ft
Coldfoot 5 in 1040 ft
Gobblers Knob 1 in 2030 ft
Fort Yukon 4 in 430 ft

Earthquake Activity

City Distance Mag. Time & Date
No recent earthquake activity has been reported nearby.
Minimum magnitude displayed is 2.5.

Coastal Water Temperatures

Place Temperature
No Stations Reporting

Nearby Weather Stations